SWA456 KLGB-KSJC
Flight info
| Callsign | SWA456 |
|---|---|
| Flight time | 0h 55m |
| Altitude | 34000 |
| Route | VTU RZS SCTRR TROXX SILCN6 |
| Aircraft | B738/M-SDE2E3FGHIRWXY/LB1 |
Departure
| Time | 2026-04-27 23:37 |
|---|---|
| Airport | Long Beach International Airport (KLGB) |
Arrival
| Time | 2026-04-28 00:32 |
|---|---|
| Airport | Norman Y. Mineta San Jose International Airport (KSJC) |
| Time | Latitude | Longitude | Altitude | Speed | Heading |
|---|---|---|---|---|---|
| 2026-04-27 23:00 | 33.81781 | -118.14604 | 44 ft | 0 kts | 90° |
| 2026-04-27 23:27 | 33.81781 | -118.14613 | 44 ft | 3 kts | 91° |
| 2026-04-27 23:27 | 33.81782 | -118.14637 | 41 ft | 3 kts | 96° |
| 2026-04-27 23:27 | 33.81785 | -118.14661 | 44 ft | 3 kts | 105° |
| 2026-04-27 23:27 | 33.81792 | -118.14683 | 40 ft | 3 kts | 123° |
| 2026-04-27 23:28 | 33.81803 | -118.14698 | 43 ft | 3 kts | 165° |
| 2026-04-27 23:28 | 33.81810 | -118.14700 | 43 ft | 0 kts | 180° |
| 2026-04-27 23:33 | 33.81805 | -118.14701 | 43 ft | 4 kts | 181° |
| 2026-04-27 23:33 | 33.81734 | -118.14702 | 44 ft | 16 kts | 180° |
| 2026-04-27 23:33 | 33.81606 | -118.14701 | 44 ft | 19 kts | 178° |
| 2026-04-27 23:33 | 33.81502 | -118.14616 | 44 ft | 18 kts | 135° |
| 2026-04-27 23:34 | 33.81415 | -118.14510 | 44 ft | 18 kts | 134° |
| 2026-04-27 23:34 | 33.81330 | -118.14407 | 44 ft | 17 kts | 135° |
| 2026-04-27 23:34 | 33.81248 | -118.14307 | 44 ft | 16 kts | 134° |
| 2026-04-27 23:34 | 33.81169 | -118.14212 | 44 ft | 16 kts | 134° |
| 2026-04-27 23:35 | 33.81094 | -118.14119 | 44 ft | 15 kts | 134° |
| 2026-04-27 23:35 | 33.81020 | -118.14032 | 45 ft | 15 kts | 136° |
| 2026-04-27 23:35 | 33.80950 | -118.13947 | 45 ft | 14 kts | 135° |
| 2026-04-27 23:35 | 33.80875 | -118.13858 | 44 ft | 16 kts | 134° |
| 2026-04-27 23:36 | 33.80788 | -118.13872 | 44 ft | 16 kts | 233° |
| 2026-04-27 23:36 | 33.80863 | -118.14035 | 44 ft | 50 kts | 315° |
| 2026-04-27 23:36 | 33.81269 | -118.14524 | 41 ft | 113 kts | 315° |
| 2026-04-27 23:36 | 33.81948 | -118.15347 | 47 ft | 161 kts | 312° |
| 2026-04-27 23:37 | 33.82776 | -118.16359 | 423 ft | 174 kts | 307° |
| 2026-04-27 23:37 | 33.83361 | -118.17717 | 732 ft | 196 kts | 276° |
| 2026-04-27 23:37 | 33.83154 | -118.19385 | 970 ft | 214 kts | 244° |
| 2026-04-27 23:37 | 33.82099 | -118.20738 | 1240 ft | 234 kts | 211° |
| 2026-04-27 23:38 | 33.80496 | -118.21323 | 1712 ft | 250 kts | 194° |
| 2026-04-27 23:38 | 33.78761 | -118.21649 | 2434 ft | 255 kts | 191° |
| 2026-04-27 23:38 | 33.77022 | -118.21948 | 3233 ft | 255 kts | 191° |
| 2026-04-27 23:38 | 33.75236 | -118.22250 | 3905 ft | 261 kts | 190° |
| 2026-04-27 23:39 | 33.73413 | -118.22590 | 4597 ft | 266 kts | 192° |
| 2026-04-27 23:39 | 33.71565 | -118.22962 | 5279 ft | 271 kts | 192° |
| 2026-04-27 23:39 | 33.69690 | -118.23337 | 5978 ft | 275 kts | 193° |
| 2026-04-27 23:39 | 33.67791 | -118.23709 | 6700 ft | 279 kts | 191° |
| 2026-04-27 23:40 | 33.65897 | -118.24195 | 7426 ft | 276 kts | 207° |
| 2026-04-27 23:40 | 33.64383 | -118.25498 | 8179 ft | 270 kts | 233° |
| 2026-04-27 23:40 | 33.63540 | -118.27482 | 8957 ft | 267 kts | 257° |
| 2026-04-27 23:40 | 33.63129 | -118.29654 | 9799 ft | 267 kts | 260° |
| 2026-04-27 23:41 | 33.62780 | -118.31856 | 10451 ft | 275 kts | 261° |
| 2026-04-27 23:41 | 33.62419 | -118.34231 | 10628 ft | 300 kts | 261° |
| 2026-04-27 23:41 | 33.62040 | -118.36784 | 10929 ft | 318 kts | 261° |
| 2026-04-27 23:41 | 33.61739 | -118.39390 | 11573 ft | 321 kts | 271° |
| 2026-04-27 23:42 | 33.62312 | -118.41952 | 12361 ft | 323 kts | 299° |
| 2026-04-27 23:42 | 33.63779 | -118.44020 | 13217 ft | 327 kts | 311° |
| 2026-04-27 23:42 | 33.65377 | -118.45990 | 13978 ft | 331 kts | 310° |
| 2026-04-27 23:42 | 33.66986 | -118.47991 | 14669 ft | 335 kts | 310° |
| 2026-04-27 23:43 | 33.68603 | -118.50015 | 15413 ft | 337 kts | 310° |
| 2026-04-27 23:43 | 33.70231 | -118.52064 | 16171 ft | 340 kts | 310° |
| 2026-04-27 23:43 | 33.71869 | -118.54135 | 16888 ft | 343 kts | 309° |
| 2026-04-27 23:43 | 33.73515 | -118.56225 | 17652 ft | 344 kts | 309° |
| 2026-04-27 23:44 | 33.75141 | -118.58293 | 18436 ft | 346 kts | 309° |
| 2026-04-27 23:44 | 33.76810 | -118.60420 | 19009 ft | 351 kts | 309° |
| 2026-04-27 23:44 | 33.78493 | -118.62570 | 19576 ft | 355 kts | 309° |
| 2026-04-27 23:44 | 33.80201 | -118.64752 | 20133 ft | 359 kts | 309° |
| 2026-04-27 23:45 | 33.81928 | -118.66960 | 20684 ft | 364 kts | 310° |
| 2026-04-27 23:45 | 33.83650 | -118.69165 | 21205 ft | 369 kts | 310° |
| 2026-04-27 23:45 | 33.85420 | -118.71431 | 21715 ft | 374 kts | 310° |
| 2026-04-27 23:45 | 33.87215 | -118.73729 | 22236 ft | 378 kts | 310° |
| 2026-04-27 23:46 | 33.89028 | -118.76053 | 22774 ft | 382 kts | 310° |
| 2026-04-27 23:46 | 33.90860 | -118.78402 | 23328 ft | 385 kts | 310° |
| 2026-04-27 23:46 | 33.92699 | -118.80762 | 23852 ft | 388 kts | 310° |
| 2026-04-27 23:46 | 33.94557 | -118.83148 | 24294 ft | 391 kts | 310° |
| 2026-04-27 23:47 | 33.96426 | -118.85550 | 24767 ft | 393 kts | 310° |
| 2026-04-27 23:47 | 33.98297 | -118.87962 | 25226 ft | 395 kts | 310° |
| 2026-04-27 23:47 | 34.00187 | -118.90400 | 25670 ft | 398 kts | 309° |
| 2026-04-27 23:47 | 34.02061 | -118.92817 | 26101 ft | 400 kts | 309° |
| 2026-04-27 23:48 | 34.03972 | -118.95280 | 26527 ft | 403 kts | 309° |
| 2026-04-27 23:48 | 34.05895 | -118.97760 | 26930 ft | 406 kts | 309° |
| 2026-04-27 23:48 | 34.07827 | -119.00253 | 27382 ft | 408 kts | 309° |
| 2026-04-27 23:48 | 34.09789 | -119.02788 | 27588 ft | 416 kts | 309° |
| 2026-04-27 23:49 | 34.11743 | -119.05326 | 27950 ft | 418 kts | 306° |
| 2026-04-27 23:49 | 34.13417 | -119.08181 | 28387 ft | 416 kts | 300° |
| 2026-04-27 23:49 | 34.14991 | -119.11122 | 28970 ft | 414 kts | 300° |
| 2026-04-27 23:49 | 34.16552 | -119.14029 | 29591 ft | 411 kts | 300° |
| 2026-04-27 23:50 | 34.18113 | -119.16912 | 30164 ft | 409 kts | 300° |
| 2026-04-27 23:50 | 34.19673 | -119.19773 | 30617 ft | 407 kts | 300° |
| 2026-04-27 23:50 | 34.21233 | -119.22620 | 31088 ft | 405 kts | 300° |
| 2026-04-27 23:50 | 34.22787 | -119.25447 | 31608 ft | 402 kts | 300° |
| 2026-04-27 23:51 | 34.24328 | -119.28249 | 32144 ft | 399 kts | 300° |
| 2026-04-27 23:51 | 34.25859 | -119.31036 | 32329 ft | 404 kts | 300° |
| 2026-04-27 23:51 | 34.27421 | -119.33883 | 32645 ft | 405 kts | 300° |
| 2026-04-27 23:51 | 34.28979 | -119.36720 | 33164 ft | 402 kts | 300° |
| 2026-04-27 23:52 | 34.30514 | -119.39518 | 33721 ft | 397 kts | 300° |
| 2026-04-27 23:52 | 34.32021 | -119.42267 | 34060 ft | 398 kts | 300° |
| 2026-04-27 23:52 | 34.35112 | -119.47921 | 34045 ft | 403 kts | 300° |
| 2026-04-27 23:53 | 34.38181 | -119.53536 | 34029 ft | 395 kts | 300° |
| 2026-04-27 23:53 | 34.41225 | -119.59118 | 34038 ft | 398 kts | 300° |
| 2026-04-27 23:54 | 34.44268 | -119.64706 | 34036 ft | 401 kts | 300° |
| 2026-04-27 23:54 | 34.47358 | -119.70389 | 34037 ft | 404 kts | 300° |
| 2026-04-27 23:55 | 34.50633 | -119.75978 | 34022 ft | 410 kts | 309° |
| 2026-04-27 23:55 | 34.55022 | -119.80400 | 34036 ft | 416 kts | 323° |
| 2026-04-27 23:56 | 34.59901 | -119.84187 | 34045 ft | 415 kts | 323° |
| 2026-04-27 23:56 | 34.64735 | -119.87934 | 34042 ft | 410 kts | 323° |
| 2026-04-27 23:57 | 34.69547 | -119.91710 | 34045 ft | 411 kts | 323° |
| 2026-04-27 23:57 | 34.74323 | -119.95481 | 34074 ft | 411 kts | 323° |
| 2026-04-27 23:58 | 34.79127 | -119.99284 | 34073 ft | 412 kts | 323° |
| 2026-04-27 23:58 | 34.83908 | -120.03072 | 34061 ft | 412 kts | 323° |
| 2026-04-27 23:59 | 34.88720 | -120.06891 | 34076 ft | 412 kts | 323° |
| 2026-04-27 23:59 | 34.93540 | -120.10723 | 34076 ft | 412 kts | 323° |
| 2026-04-28 00:00 | 34.98321 | -120.14527 | 34086 ft | 412 kts | 323° |
| 2026-04-28 00:00 | 35.03128 | -120.18360 | 34089 ft | 413 kts | 323° |
| 2026-04-28 00:01 | 35.07940 | -120.22201 | 34093 ft | 413 kts | 323° |
| 2026-04-28 00:01 | 35.12729 | -120.26031 | 34087 ft | 413 kts | 323° |
| 2026-04-28 00:02 | 35.17503 | -120.29852 | 34091 ft | 413 kts | 323° |
| 2026-04-28 00:02 | 35.22320 | -120.33712 | 34094 ft | 413 kts | 323° |
| 2026-04-28 00:03 | 35.27105 | -120.37555 | 34090 ft | 414 kts | 323° |
| 2026-04-28 00:03 | 35.31936 | -120.41439 | 34090 ft | 414 kts | 323° |
| 2026-04-28 00:04 | 35.39115 | -120.47221 | 34099 ft | 413 kts | 323° |
| 2026-04-28 00:05 | 35.43928 | -120.51105 | 34099 ft | 412 kts | 323° |
| 2026-04-28 00:05 | 35.48700 | -120.54961 | 34104 ft | 412 kts | 323° |
| 2026-04-28 00:06 | 35.53483 | -120.58826 | 34100 ft | 411 kts | 323° |
| 2026-04-28 00:06 | 35.58221 | -120.62547 | 34090 ft | 396 kts | 324° |
| 2026-04-28 00:06 | 35.60513 | -120.64329 | 34080 ft | 383 kts | 324° |
| 2026-04-28 00:07 | 35.62725 | -120.66051 | 34081 ft | 370 kts | 323° |
| 2026-04-28 00:07 | 35.64865 | -120.67722 | 34098 ft | 358 kts | 323° |
| 2026-04-28 00:07 | 35.66902 | -120.69317 | 34083 ft | 346 kts | 323° |
| 2026-04-28 00:07 | 35.68896 | -120.70881 | 34078 ft | 334 kts | 323° |
| 2026-04-28 00:08 | 35.70851 | -120.72420 | 34102 ft | 335 kts | 323° |
| 2026-04-28 00:08 | 35.74886 | -120.75609 | 34110 ft | 353 kts | 323° |
| 2026-04-28 00:08 | 35.76974 | -120.77258 | 33947 ft | 360 kts | 323° |
| 2026-04-28 00:09 | 35.79127 | -120.78963 | 32558 ft | 380 kts | 323° |
| 2026-04-28 00:09 | 35.81378 | -120.80739 | 31460 ft | 389 kts | 324° |
| 2026-04-28 00:09 | 35.83685 | -120.82559 | 30347 ft | 397 kts | 324° |
| 2026-04-28 00:09 | 35.86033 | -120.84411 | 29120 ft | 403 kts | 324° |
| 2026-04-28 00:10 | 35.88349 | -120.86235 | 28789 ft | 386 kts | 324° |
| 2026-04-28 00:10 | 35.90596 | -120.88007 | 28395 ft | 375 kts | 324° |
| 2026-04-28 00:10 | 35.92805 | -120.89757 | 27998 ft | 383 kts | 324° |
| 2026-04-28 00:10 | 35.95051 | -120.91540 | 27651 ft | 391 kts | 324° |
| 2026-04-28 00:11 | 35.97351 | -120.93364 | 27215 ft | 394 kts | 324° |
| 2026-04-28 00:11 | 35.98905 | -120.94595 | 26958 ft | 393 kts | 324° |
| 2026-04-28 00:11 | 36.01907 | -120.97046 | 26444 ft | 385 kts | 322° |
| 2026-04-28 00:11 | 36.04046 | -120.99018 | 26106 ft | 383 kts | 320° |
| 2026-04-28 00:12 | 36.06127 | -121.01024 | 25724 ft | 382 kts | 320° |
| 2026-04-28 00:12 | 36.08215 | -121.03056 | 25338 ft | 382 kts | 320° |
| 2026-04-28 00:12 | 36.10305 | -121.05082 | 24949 ft | 381 kts | 320° |
| 2026-04-28 00:12 | 36.12394 | -121.07096 | 24561 ft | 379 kts | 320° |
| 2026-04-28 00:13 | 36.14481 | -121.09096 | 24165 ft | 376 kts | 320° |
| 2026-04-28 00:13 | 36.16533 | -121.11058 | 23793 ft | 371 kts | 320° |
| 2026-04-28 00:13 | 36.18566 | -121.12998 | 23363 ft | 366 kts | 321° |
| 2026-04-28 00:13 | 36.20573 | -121.14914 | 22938 ft | 362 kts | 321° |
| 2026-04-28 00:14 | 36.22529 | -121.16783 | 22575 ft | 357 kts | 321° |
| 2026-04-28 00:14 | 36.24490 | -121.18657 | 22198 ft | 352 kts | 321° |
| 2026-04-28 00:14 | 36.26424 | -121.20507 | 21834 ft | 350 kts | 321° |
| 2026-04-28 00:14 | 36.28362 | -121.22363 | 21465 ft | 352 kts | 321° |
| 2026-04-28 00:15 | 36.30287 | -121.24208 | 21087 ft | 354 kts | 321° |
| 2026-04-28 00:15 | 36.32241 | -121.26080 | 20691 ft | 353 kts | 321° |
| 2026-04-28 00:15 | 36.34180 | -121.27939 | 20313 ft | 351 kts | 321° |
| 2026-04-28 00:15 | 36.36120 | -121.29801 | 19807 ft | 354 kts | 321° |
| 2026-04-28 00:16 | 36.38078 | -121.31686 | 19170 ft | 358 kts | 321° |
| 2026-04-28 00:16 | 36.40058 | -121.33595 | 18510 ft | 360 kts | 321° |
| 2026-04-28 00:16 | 36.42018 | -121.35484 | 17773 ft | 363 kts | 321° |
| 2026-04-28 00:16 | 36.44018 | -121.37413 | 17066 ft | 364 kts | 321° |
| 2026-04-28 00:17 | 36.46023 | -121.39348 | 16375 ft | 365 kts | 321° |
| 2026-04-28 00:17 | 36.48032 | -121.41289 | 15702 ft | 365 kts | 321° |
| 2026-04-28 00:17 | 36.50092 | -121.43135 | 15068 ft | 366 kts | 330° |
| 2026-04-28 00:17 | 36.52437 | -121.44291 | 14639 ft | 361 kts | 340° |
| 2026-04-28 00:18 | 36.54810 | -121.45245 | 14219 ft | 356 kts | 341° |
| 2026-04-28 00:18 | 36.57153 | -121.46192 | 13810 ft | 350 kts | 341° |
| 2026-04-28 00:18 | 36.59448 | -121.47133 | 13388 ft | 345 kts | 340° |
| 2026-04-28 00:18 | 36.61684 | -121.48063 | 12995 ft | 340 kts | 340° |
| 2026-04-28 00:19 | 36.63909 | -121.48997 | 12614 ft | 334 kts | 340° |
| 2026-04-28 00:19 | 36.66082 | -121.49914 | 12251 ft | 325 kts | 341° |
| 2026-04-28 00:19 | 36.68196 | -121.50807 | 11898 ft | 315 kts | 340° |
| 2026-04-28 00:19 | 36.69558 | -121.51383 | 11681 ft | 309 kts | 340° |
| 2026-04-28 00:20 | 36.71563 | -121.52232 | 11338 ft | 300 kts | 341° |
| 2026-04-28 00:20 | 36.73520 | -121.53061 | 11020 ft | 293 kts | 341° |
| 2026-04-28 00:20 | 36.75425 | -121.53868 | 10719 ft | 286 kts | 340° |
| 2026-04-28 00:20 | 36.77272 | -121.54652 | 10446 ft | 280 kts | 341° |
| 2026-04-28 00:21 | 36.79112 | -121.55434 | 10160 ft | 278 kts | 341° |
| 2026-04-28 00:21 | 36.80951 | -121.56217 | 9852 ft | 278 kts | 341° |
| 2026-04-28 00:21 | 36.82785 | -121.56998 | 9554 ft | 278 kts | 341° |
| 2026-04-28 00:21 | 36.84619 | -121.57778 | 9238 ft | 278 kts | 341° |
| 2026-04-28 00:22 | 36.86447 | -121.58556 | 8951 ft | 277 kts | 341° |
| 2026-04-28 00:22 | 36.88248 | -121.59323 | 8664 ft | 275 kts | 341° |
| 2026-04-28 00:22 | 36.90061 | -121.60095 | 8376 ft | 275 kts | 342° |
| 2026-04-28 00:22 | 36.91864 | -121.60863 | 8091 ft | 273 kts | 342° |
| 2026-04-28 00:23 | 36.93654 | -121.61623 | 7820 ft | 271 kts | 342° |
| 2026-04-28 00:23 | 36.95426 | -121.62376 | 7566 ft | 268 kts | 342° |
| 2026-04-28 00:23 | 36.97199 | -121.63129 | 7298 ft | 267 kts | 342° |
| 2026-04-28 00:23 | 36.98953 | -121.63873 | 7045 ft | 265 kts | 342° |
| 2026-04-28 00:24 | 37.00694 | -121.64611 | 6785 ft | 264 kts | 343° |
| 2026-04-28 00:24 | 37.02434 | -121.65349 | 6519 ft | 263 kts | 342° |
| 2026-04-28 00:24 | 37.04162 | -121.66082 | 6245 ft | 261 kts | 343° |
| 2026-04-28 00:24 | 37.06414 | -121.67034 | 5928 ft | 253 kts | 341° |
| 2026-04-28 00:25 | 37.07522 | -121.67509 | 5755 ft | 245 kts | 341° |
| 2026-04-28 00:25 | 37.09128 | -121.68195 | 5512 ft | 242 kts | 341° |
| 2026-04-28 00:25 | 37.10691 | -121.68862 | 5259 ft | 238 kts | 341° |
| 2026-04-28 00:25 | 37.12247 | -121.69525 | 5023 ft | 235 kts | 340° |
| 2026-04-28 00:26 | 37.13790 | -121.70182 | 4792 ft | 233 kts | 340° |
| 2026-04-28 00:26 | 37.15323 | -121.70839 | 4578 ft | 232 kts | 340° |
| 2026-04-28 00:26 | 37.16801 | -121.71661 | 4314 ft | 234 kts | 326° |
| 2026-04-28 00:26 | 37.18053 | -121.72937 | 4120 ft | 228 kts | 317° |
| 2026-04-28 00:27 | 37.19197 | -121.74251 | 3937 ft | 220 kts | 317° |
| 2026-04-28 00:27 | 37.20335 | -121.75511 | 3724 ft | 220 kts | 318° |
| 2026-04-28 00:27 | 37.21501 | -121.76790 | 3636 ft | 221 kts | 318° |
| 2026-04-28 00:27 | 37.22629 | -121.78027 | 3424 ft | 211 kts | 318° |
| 2026-04-28 00:28 | 37.23707 | -121.79208 | 3162 ft | 200 kts | 318° |
| 2026-04-28 00:28 | 37.24728 | -121.80331 | 2930 ft | 189 kts | 317° |
| 2026-04-28 00:28 | 37.25691 | -121.81387 | 2669 ft | 183 kts | 317° |
| 2026-04-28 00:28 | 37.26631 | -121.82418 | 2409 ft | 175 kts | 318° |
| 2026-04-28 00:29 | 37.27531 | -121.83406 | 2180 ft | 171 kts | 317° |
| 2026-04-28 00:29 | 37.28420 | -121.84381 | 1983 ft | 167 kts | 317° |
| 2026-04-28 00:29 | 37.29297 | -121.85345 | 1749 ft | 164 kts | 317° |
| 2026-04-28 00:29 | 37.30119 | -121.86246 | 1508 ft | 150 kts | 319° |
| 2026-04-28 00:30 | 37.30873 | -121.87073 | 1339 ft | 144 kts | 318° |
| 2026-04-28 00:30 | 37.31616 | -121.87888 | 1142 ft | 141 kts | 319° |
| 2026-04-28 00:30 | 37.32343 | -121.88684 | 986 ft | 137 kts | 319° |
| 2026-04-28 00:30 | 37.33047 | -121.89458 | 785 ft | 136 kts | 320° |
| 2026-04-28 00:31 | 37.33766 | -121.90265 | 580 ft | 142 kts | 323° |
| 2026-04-28 00:31 | 37.34537 | -121.91103 | 384 ft | 148 kts | 320° |
| 2026-04-28 00:31 | 37.35292 | -121.91933 | 199 ft | 141 kts | 322° |
| 2026-04-28 00:31 | 37.36007 | -121.92714 | 72 ft | 128 kts | 324° |
| 2026-04-28 00:32 | 37.36560 | -121.93305 | 66 ft | 74 kts | 319° |
| 2026-04-28 00:32 | 37.36799 | -121.93556 | 66 ft | 20 kts | 330° |
| 2026-04-28 00:32 | 37.36921 | -121.93557 | 65 ft | 12 kts | 37° |
| 2026-04-28 00:32 | 37.36936 | -121.93540 | 69 ft | 10 kts | 46° |
| 2026-04-28 00:33 | 37.36991 | -121.93453 | 68 ft | 13 kts | 36° |
| 2026-04-28 00:33 | 37.37052 | -121.93369 | 66 ft | 13 kts | 49° |
| 2026-04-28 00:33 | 37.37055 | -121.93274 | 70 ft | 13 kts | 127° |
| 2026-04-28 00:33 | 37.37002 | -121.93209 | 65 ft | 10 kts | 140° |
| 2026-04-28 00:34 | 37.36948 | -121.93151 | 67 ft | 10 kts | 139° |
| 2026-04-28 00:34 | 37.36910 | -121.93107 | 63 ft | 7 kts | 135° |
| 2026-04-28 00:34 | 37.36877 | -121.93066 | 70 ft | 7 kts | 134° |
| 2026-04-28 00:34 | 37.36842 | -121.93028 | 65 ft | 8 kts | 146° |
| 2026-04-28 00:35 | 37.36752 | -121.92940 | 66 ft | 22 kts | 139° |
| 2026-04-28 00:35 | 37.36639 | -121.92814 | 66 ft | 22 kts | 142° |
| 2026-04-28 00:35 | 37.36533 | -121.92700 | 68 ft | 16 kts | 138° |
| 2026-04-28 00:35 | 37.36489 | -121.92619 | 69 ft | 11 kts | 84° |
| 2026-04-28 00:36 | 37.36512 | -121.92581 | 72 ft | 2 kts | 49° |
| 2026-04-28 00:36 | 37.36523 | -121.92565 | 69 ft | 2 kts | 47° |
| 2026-04-28 00:36 | 37.36525 | -121.92563 | 70 ft | 0 kts | 47° |